createdAt,value
2022-12-25T00:01:49.543Z,68.67
2022-12-25T00:04:17.614Z,68.78
2022-12-25T00:06:45.922Z,69.01
2022-12-25T00:09:13.884Z,69.05
2022-12-25T00:11:41.999Z,69.00
2022-12-25T00:14:10.138Z,69.05
2022-12-25T00:16:38.222Z,68.93
2022-12-25T00:19:06.258Z,69.00
2022-12-25T00:21:34.331Z,69.06
2022-12-25T00:24:03.649Z,69.08
2022-12-25T00:26:31.774Z,69.26
2022-12-25T00:28:59.642Z,69.43
2022-12-25T00:31:27.834Z,69.34
2022-12-25T00:33:55.744Z,69.48
2022-12-25T00:36:23.914Z,69.44
2022-12-25T00:38:51.977Z,69.40
2022-12-25T00:41:40.067Z,69.27
2022-12-25T00:44:08.774Z,69.17
2022-12-25T00:46:37.360Z,69.22
2022-12-25T00:49:05.961Z,69.29
2022-12-25T00:51:34.273Z,69.23
2022-12-25T00:54:02.357Z,69.15
2022-12-25T00:56:30.349Z,69.19
2022-12-25T00:58:58.104Z,69.18
2022-12-25T01:01:25.976Z,69.17
2022-12-25T01:03:55.018Z,69.14
2022-12-25T01:06:22.897Z,69.11
2022-12-25T01:09:09.391Z,69.24
2022-12-25T01:11:37.214Z,69.21
2022-12-25T01:14:05.359Z,69.24
2022-12-25T01:16:33.245Z,69.31
2022-12-25T01:19:01.187Z,69.21
2022-12-25T01:21:29.148Z,69.24
2022-12-25T01:23:57.393Z,69.24
2022-12-25T01:26:26.960Z,69.17
2022-12-25T01:28:55.280Z,69.08
2022-12-25T01:31:24.643Z,69.14
2022-12-25T01:33:53.097Z,69.15
2022-12-25T01:36:23.819Z,69.18
2022-12-25T01:38:53.602Z,69.22
2022-12-25T01:41:24.373Z,69.15
2022-12-25T01:44:13.570Z,69.10
2022-12-25T01:46:41.513Z,69.15
2022-12-25T01:49:21.071Z,69.03
2022-12-25T01:51:54.203Z,68.96
2022-12-25T01:54:27.591Z,69.00
2022-12-25T01:56:59.776Z,68.92
2022-12-25T01:59:28.049Z,69.05
2022-12-25T02:02:00.083Z,69.11
2022-12-25T02:04:39.848Z,69.29
2022-12-25T02:07:11.907Z,69.63
2022-12-25T02:09:39.977Z,69.78
2022-12-25T02:12:09.853Z,70.04
2022-12-25T02:14:38.260Z,70.09
2022-12-25T02:17:15.320Z,70.23
2022-12-25T02:20:02.132Z,70.18
2022-12-25T02:22:40.541Z,70.17
2022-12-25T02:25:23.657Z,70.10
2022-12-25T02:28:06.528Z,69.92
2022-12-25T02:30:44.216Z,69.84
2022-12-25T02:33:49.593Z,69.84
2022-12-25T02:36:23.855Z,69.87
2022-12-25T02:39:13.280Z,69.83
2022-12-25T02:41:46.242Z,69.83
2022-12-25T02:44:36.684Z,69.88
2022-12-25T02:47:25.630Z,69.97
2022-12-25T02:50:14.822Z,70.21
2022-12-25T02:53:03.299Z,69.99
2022-12-25T02:55:52.385Z,70.10
2022-12-25T02:58:41.567Z,69.89
2022-12-25T03:01:33.734Z,69.67
2022-12-25T03:04:25.784Z,69.60
2022-12-25T03:07:00.490Z,69.50
2022-12-25T03:09:53.371Z,69.62
2022-12-25T03:13:10.656Z,69.48
2022-12-25T03:16:04.850Z,69.29
2022-12-25T03:18:33.908Z,69.45
2022-12-25T03:21:20.518Z,69.45
2022-12-25T03:24:12.843Z,69.34
2022-12-25T03:26:55.872Z,69.31
2022-12-25T03:29:50.452Z,69.49
2022-12-25T03:32:48.419Z,69.49
2022-12-25T03:35:28.349Z,69.46
2022-12-25T03:38:15.022Z,69.49
2022-12-25T03:41:27.691Z,69.50
2022-12-25T03:45:01.623Z,69.38
2022-12-25T03:47:59.219Z,69.37
2022-12-25T03:50:57.530Z,69.25
2022-12-25T03:53:46.282Z,69.11
2022-12-25T03:56:35.918Z,69.12
2022-12-25T03:59:24.031Z,68.93
2022-12-25T04:02:11.216Z,68.97
2022-12-25T04:04:57.552Z,69.10
2022-12-25T04:07:44.146Z,69.25
2022-12-25T04:10:30.820Z,69.26
2022-12-25T04:13:17.437Z,69.06
2022-12-25T04:16:03.955Z,69.08
2022-12-25T04:18:50.529Z,69.04
2022-12-25T04:21:37.216Z,68.76
2022-12-25T04:24:23.862Z,68.78
2022-12-25T04:27:10.350Z,68.68
2022-12-25T04:29:56.940Z,68.43
2022-12-25T04:32:43.409Z,68.34
2022-12-25T04:35:30.573Z,68.22
2022-12-25T04:37:58.470Z,68.28
2022-12-25T04:40:26.300Z,68.29
2022-12-25T04:42:54.068Z,68.30
2022-12-25T04:45:21.963Z,68.31
2022-12-25T04:47:49.892Z,68.34
2022-12-25T04:50:17.643Z,68.31
2022-12-25T04:52:45.365Z,68.31
2022-12-25T04:55:13.166Z,68.34
2022-12-25T04:57:40.885Z,68.46
2022-12-25T05:00:09.122Z,68.55
2022-12-25T05:02:37.169Z,68.40
2022-12-25T05:05:05.662Z,68.29
2022-12-25T05:07:33.939Z,68.11
2022-12-25T05:10:01.900Z,67.96
2022-12-25T05:12:29.907Z,67.76
2022-12-25T05:14:57.710Z,67.76
2022-12-25T05:17:25.494Z,67.67
2022-12-25T05:19:53.298Z,67.56
2022-12-25T05:22:21.153Z,67.38
2022-12-25T05:24:49.037Z,67.43
2022-12-25T05:27:17.089Z,67.41
2022-12-25T05:29:45.144Z,67.33
2022-12-25T05:32:13.114Z,67.34
2022-12-25T05:34:41.054Z,67.65
2022-12-25T05:37:09.111Z,67.76
2022-12-25T05:39:37.170Z,67.72
2022-12-25T05:42:05.098Z,67.64
2022-12-25T05:44:32.908Z,67.68
2022-12-25T05:47:00.845Z,67.56
2022-12-25T05:49:28.817Z,67.54
2022-12-25T05:51:56.698Z,67.66
2022-12-25T05:54:24.859Z,67.63
2022-12-25T05:56:52.825Z,67.69
2022-12-25T05:59:20.773Z,67.66
2022-12-25T06:01:48.901Z,67.68
2022-12-25T06:04:16.841Z,67.80
2022-12-25T06:06:44.852Z,67.80
2022-12-25T06:09:13.576Z,67.74
2022-12-25T06:11:42.110Z,67.72
2022-12-25T06:14:13.627Z,67.81
2022-12-25T06:16:41.624Z,67.89
2022-12-25T06:19:09.727Z,67.97
2022-12-25T06:21:37.743Z,67.95
2022-12-25T06:24:06.002Z,67.94
2022-12-25T06:26:34.144Z,67.96
2022-12-25T06:29:02.147Z,68.01
2022-12-25T06:31:30.132Z,67.99
2022-12-25T06:33:57.989Z,68.11
2022-12-25T06:36:29.338Z,68.10
2022-12-25T06:39:01.342Z,68.26
2022-12-25T06:41:30.396Z,68.27
2022-12-25T06:44:01.294Z,68.36
2022-12-25T06:46:30.514Z,68.31
2022-12-25T06:48:59.403Z,68.23
2022-12-25T06:51:31.357Z,68.29
2022-12-25T06:54:04.075Z,68.31
2022-12-25T06:56:33.898Z,68.28
2022-12-25T06:59:07.640Z,68.29
2022-12-25T07:01:44.212Z,68.39
2022-12-25T07:04:25.544Z,68.39
2022-12-25T07:06:53.583Z,68.38
2022-12-25T07:09:21.419Z,68.52
2022-12-25T07:11:49.290Z,68.47
2022-12-25T07:14:24.435Z,68.45
2022-12-25T07:16:52.568Z,68.28
2022-12-25T07:19:20.511Z,68.28
2022-12-25T07:21:48.419Z,68.21
2022-12-25T07:24:23.733Z,68.09
2022-12-25T07:26:51.822Z,67.90
2022-12-25T07:29:19.909Z,67.69
2022-12-25T07:31:48.094Z,67.46
2022-12-25T07:34:19.400Z,67.54
2022-12-25T07:36:47.413Z,67.64
2022-12-25T07:39:16.379Z,67.74
2022-12-25T07:41:44.831Z,67.78
2022-12-25T07:44:16.416Z,67.95
2022-12-25T07:46:44.319Z,67.98
2022-12-25T07:49:12.455Z,67.94
2022-12-25T07:51:40.350Z,67.81
2022-12-25T07:54:08.437Z,67.65
2022-12-25T07:56:36.417Z,67.53
2022-12-25T07:59:04.292Z,67.45
2022-12-25T08:01:32.363Z,67.42
2022-12-25T08:04:02.382Z,67.26
2022-12-25T08:06:33.040Z,67.38
2022-12-25T08:09:09.730Z,67.42
2022-12-25T08:11:38.654Z,67.43
2022-12-25T08:14:08.017Z,67.40
2022-12-25T08:16:36.535Z,67.52
2022-12-25T08:19:04.414Z,67.72
2022-12-25T08:21:32.188Z,67.25
2022-12-25T08:24:00.160Z,66.75
2022-12-25T08:26:28.161Z,66.05
2022-12-25T08:28:56.141Z,65.00
2022-12-25T08:31:26.838Z,64.28
2022-12-25T08:33:56.944Z,63.03
2022-12-25T08:36:24.926Z,62.37
2022-12-25T08:38:57.012Z,62.14
2022-12-25T08:41:27.186Z,61.73
2022-12-25T08:43:55.066Z,61.02
2022-12-25T08:46:23.470Z,60.46
2022-12-25T08:48:51.449Z,59.49
2022-12-25T08:51:20.519Z,57.67
2022-12-25T08:53:49.897Z,55.87
2022-12-25T08:59:21.708Z,52.65
2022-12-25T09:01:49.879Z,51.46
2022-12-25T09:04:17.911Z,50.32
2022-12-25T09:06:45.751Z,49.34
2022-12-25T09:09:13.667Z,48.50
2022-12-25T09:11:41.670Z,46.28
2022-12-25T09:14:09.936Z,45.10
2022-12-25T09:16:37.885Z,42.65
2022-12-25T09:19:05.690Z,42.78
2022-12-25T09:21:33.558Z,43.25
2022-12-25T09:24:01.452Z,42.78
2022-12-25T09:26:29.431Z,42.19
2022-12-25T09:28:57.703Z,41.19
2022-12-25T09:31:25.894Z,40.88
2022-12-25T09:33:58.033Z,39.71
2022-12-25T09:36:26.325Z,38.76
2022-12-25T09:38:54.239Z,38.18
2022-12-25T09:41:28.445Z,38.10
2022-12-25T09:44:01.057Z,37.79
2022-12-25T09:46:39.550Z,36.49
2022-12-25T09:49:15.812Z,36.77
2022-12-25T09:51:44.512Z,36.13
2022-12-25T09:54:49.949Z,35.96
2022-12-25T09:57:17.963Z,35.56
2022-12-25T09:59:47.571Z,34.82
2022-12-25T10:02:24.668Z,34.08
2022-12-25T10:05:27.403Z,33.63
2022-12-25T10:08:23.228Z,33.28
2022-12-25T10:10:55.291Z,32.92
2022-12-25T10:13:50.302Z,33.36
2022-12-25T10:16:39.868Z,32.81
2022-12-25T10:19:17.892Z,31.53
2022-12-25T10:21:46.558Z,31.93
2022-12-25T10:24:30.755Z,31.57
2022-12-25T10:27:04.861Z,32.09
2022-12-25T10:29:35.673Z,32.36
2022-12-25T10:32:04.462Z,32.63
2022-12-25T10:34:32.600Z,32.23
2022-12-25T10:37:02.122Z,31.60
2022-12-25T10:39:30.391Z,30.56
2022-12-25T10:42:04.438Z,30.64
2022-12-25T10:44:33.432Z,29.90
2022-12-25T10:47:04.248Z,30.14
2022-12-25T10:49:36.953Z,29.89
2022-12-25T10:52:19.155Z,29.63
2022-12-25T10:54:47.193Z,29.19
2022-12-25T11:01:33.544Z,29.02
2022-12-25T11:04:02.286Z,28.64
2022-12-25T11:06:32.491Z,28.31
2022-12-25T11:09:02.471Z,27.79
2022-12-25T11:11:30.915Z,27.70
2022-12-25T11:14:03.214Z,27.65
2022-12-25T11:16:38.149Z,27.75
2022-12-25T11:19:25.053Z,27.75
2022-12-25T11:21:55.995Z,27.70
2022-12-25T11:24:30.135Z,26.94
2022-12-25T11:27:04.584Z,26.56
2022-12-25T11:29:49.271Z,26.93
2022-12-25T11:32:23.443Z,27.05
2022-12-25T11:34:51.488Z,27.58
2022-12-25T11:37:33.496Z,27.45
2022-12-25T11:40:02.707Z,27.05
2022-12-25T11:42:40.147Z,27.15
2022-12-25T11:45:21.252Z,27.47
2022-12-25T11:47:49.531Z,26.94
2022-12-25T11:50:56.521Z,27.28
2022-12-25T11:53:39.894Z,26.61
2022-12-25T11:56:14.936Z,26.35
2022-12-25T11:58:50.442Z,26.65
2022-12-25T12:01:30.810Z,26.78
2022-12-25T12:04:02.146Z,26.61
2022-12-25T12:06:40.454Z,27.05
2022-12-25T12:09:26.609Z,26.16
2022-12-25T12:12:17.731Z,25.73
2022-12-25T12:14:56.263Z,25.55
2022-12-25T12:17:24.416Z,25.15
2022-12-25T12:19:53.071Z,25.58
2022-12-25T12:22:25.686Z,25.83
2022-12-25T12:24:56.144Z,25.88
2022-12-25T12:27:33.127Z,26.17
2022-12-25T12:30:01.971Z,26.59
2022-12-25T12:32:47.783Z,25.91
2022-12-25T12:35:38.393Z,25.92
2022-12-25T12:38:17.380Z,25.94
2022-12-25T12:40:53.857Z,26.21
2022-12-25T12:43:36.476Z,26.47
2022-12-25T12:46:18.732Z,26.79
2022-12-25T12:48:51.551Z,27.32
2022-12-25T12:51:34.027Z,27.88
2022-12-25T12:54:22.268Z,28.40
2022-12-25T12:56:59.360Z,28.05
2022-12-25T12:59:37.057Z,28.09
2022-12-25T13:02:39.143Z,27.79
2022-12-25T13:05:15.896Z,27.73
2022-12-25T13:07:55.988Z,28.19
2022-12-25T13:10:32.404Z,28.05
2022-12-25T13:13:04.892Z,27.70
2022-12-25T13:15:34.597Z,27.93
2022-12-25T13:18:07.122Z,28.25
2022-12-25T13:21:18.223Z,28.06
2022-12-25T13:23:46.205Z,28.17
2022-12-25T13:26:17.165Z,28.53
2022-12-25T13:28:47.964Z,28.66
2022-12-25T13:31:23.585Z,29.06
2022-12-25T13:33:51.551Z,29.56
2022-12-25T13:36:19.589Z,30.22
2022-12-25T13:38:49.269Z,30.54
2022-12-25T13:41:40.140Z,30.95
2022-12-25T13:44:22.460Z,31.07
2022-12-25T13:46:50.712Z,31.40
2022-12-25T13:49:21.381Z,31.68
2022-12-25T13:51:50.534Z,32.25
2022-12-25T13:54:19.466Z,32.79
2022-12-25T13:56:49.682Z,33.52
2022-12-25T13:59:19.295Z,34.31
2022-12-25T14:01:47.969Z,35.70
2022-12-25T14:04:22.272Z,36.56
2022-12-25T14:06:51.167Z,38.27
2022-12-25T14:09:20.335Z,39.01
2022-12-25T14:11:52.417Z,39.92
2022-12-25T14:14:22.297Z,40.88
2022-12-25T14:16:53.597Z,41.66
2022-12-25T14:19:33.359Z,42.77
2022-12-25T14:22:03.148Z,44.22
2022-12-25T14:24:33.330Z,44.29
2022-12-25T14:27:05.414Z,44.64
2022-12-25T14:29:39.529Z,45.20
2022-12-25T14:32:08.200Z,45.61
2022-12-25T14:34:36.220Z,46.17
2022-12-25T14:37:04.693Z,46.57
2022-12-25T14:39:34.957Z,46.95
2022-12-25T14:42:22.959Z,47.14
2022-12-25T14:45:03.525Z,47.62
2022-12-25T14:47:33.708Z,48.03
2022-12-25T14:50:01.581Z,47.85
2022-12-25T14:52:43.718Z,47.98
2022-12-25T14:55:21.570Z,48.14
2022-12-25T14:57:53.775Z,47.99
2022-12-25T15:00:29.962Z,47.94
2022-12-25T15:02:59.989Z,47.98
2022-12-25T15:05:37.457Z,48.07
2022-12-25T15:08:11.412Z,48.25
2022-12-25T15:13:29.427Z,48.32
2022-12-25T15:16:12.649Z,48.40
2022-12-25T15:18:43.894Z,48.49
2022-12-25T15:21:17.594Z,48.53
2022-12-25T15:23:45.540Z,48.61
2022-12-25T15:26:14.142Z,48.72
2022-12-25T15:28:42.562Z,48.96
2022-12-25T15:31:35.204Z,49.13
2022-12-25T15:34:14.703Z,49.32
2022-12-25T15:36:42.830Z,49.40
2022-12-25T15:39:10.790Z,49.50
2022-12-25T15:41:58.287Z,49.55
2022-12-25T15:44:26.450Z,49.74
2022-12-25T15:46:54.780Z,49.81
2022-12-25T15:49:22.710Z,50.04
2022-12-25T15:51:50.577Z,50.24
2022-12-25T15:54:18.600Z,50.36
2022-12-25T15:56:57.070Z,50.40
2022-12-25T15:59:25.077Z,50.46
2022-12-25T16:01:56.749Z,50.67
2022-12-25T16:04:26.715Z,50.97
2022-12-25T16:06:55.812Z,51.18
2022-12-25T16:09:23.822Z,51.45
2022-12-25T16:11:51.591Z,51.64
2022-12-25T16:14:19.705Z,51.86
2022-12-25T16:16:47.717Z,52.25
2022-12-25T16:19:15.663Z,52.79
2022-12-25T16:21:44.833Z,52.95
2022-12-25T16:24:13.715Z,53.30
2022-12-25T16:26:42.507Z,53.32
2022-12-25T16:29:10.532Z,53.68
2022-12-25T16:31:38.846Z,53.87
2022-12-25T16:34:07.329Z,54.42
2022-12-25T16:36:36.911Z,54.33
2022-12-25T16:39:05.354Z,54.50
2022-12-25T16:41:33.171Z,54.78
2022-12-25T16:44:09.436Z,55.40
2022-12-25T16:46:39.993Z,55.91
2022-12-25T16:49:08.788Z,56.34
2022-12-25T16:51:36.888Z,56.68
2022-12-25T16:54:04.951Z,56.45
2022-12-25T16:56:32.803Z,56.48
2022-12-25T16:59:01.130Z,56.48
2022-12-25T17:01:29.736Z,56.39
2022-12-25T17:04:02.878Z,56.18
2022-12-25T17:06:30.954Z,56.10
2022-12-25T17:08:59.829Z,56.01
2022-12-25T17:11:30.074Z,55.86
2022-12-25T17:14:02.194Z,55.83
2022-12-25T17:16:35.780Z,55.82
2022-12-25T17:19:19.409Z,56.06
2022-12-25T17:21:47.459Z,56.02
2022-12-25T17:24:15.971Z,56.13
2022-12-25T17:26:44.535Z,56.17
2022-12-25T17:29:15.912Z,56.45
2022-12-25T17:31:46.774Z,56.48
2022-12-25T17:34:15.068Z,56.45
2022-12-25T17:36:42.917Z,56.65
2022-12-25T17:39:11.238Z,56.49
2022-12-25T17:41:39.486Z,56.61
2022-12-25T17:44:07.388Z,56.62
2022-12-25T17:46:35.349Z,56.84
2022-12-25T17:49:03.407Z,56.97
2022-12-25T17:51:31.988Z,57.06
2022-12-25T17:54:05.395Z,56.95
2022-12-25T17:56:33.540Z,56.90
2022-12-25T17:59:12.208Z,57.31
2022-12-25T18:01:40.450Z,57.19
2022-12-25T18:04:08.436Z,57.36
2022-12-25T18:06:37.218Z,57.38
2022-12-25T18:09:06.390Z,57.39
2022-12-25T18:11:37.617Z,57.44
2022-12-25T18:14:06.410Z,57.37
2022-12-25T18:16:36.876Z,57.43
2022-12-25T18:19:05.374Z,57.39
2022-12-25T18:21:33.366Z,57.67
2022-12-25T18:24:06.331Z,57.78
2022-12-25T18:26:34.562Z,57.87
2022-12-25T18:29:03.041Z,57.95
2022-12-25T18:31:31.136Z,57.97
2022-12-25T18:33:59.929Z,58.02
2022-12-25T18:36:29.595Z,58.06
2022-12-25T18:38:58.824Z,58.20
2022-12-25T18:41:28.436Z,58.15
2022-12-25T18:43:57.499Z,58.36
2022-12-25T18:46:26.811Z,58.50
2022-12-25T18:48:56.544Z,58.62
2022-12-25T18:51:24.802Z,58.76
2022-12-25T18:53:52.760Z,58.80
2022-12-25T18:56:20.846Z,58.94
2022-12-25T18:58:48.664Z,58.88
2022-12-25T19:01:19.803Z,59.11
2022-12-25T19:03:51.766Z,59.31
2022-12-25T19:06:24.298Z,59.33
2022-12-25T19:08:52.574Z,59.29
2022-12-25T19:11:21.802Z,59.48
2022-12-25T19:13:49.820Z,59.43
2022-12-25T19:16:18.245Z,59.76
2022-12-25T19:18:46.463Z,59.73
2022-12-25T19:21:14.262Z,59.66
2022-12-25T19:23:42.184Z,59.67
2022-12-25T19:26:10.684Z,59.63
2022-12-25T19:28:39.749Z,59.61
2022-12-25T19:31:08.442Z,59.92
2022-12-25T19:33:40.740Z,59.90
2022-12-25T19:36:12.284Z,60.02
2022-12-25T19:38:40.348Z,60.32
2022-12-25T19:41:09.183Z,60.28
2022-12-25T19:43:39.343Z,60.27
2022-12-25T19:46:10.581Z,60.34
2022-12-25T19:48:38.451Z,60.41
2022-12-25T19:51:19.729Z,60.43
2022-12-25T19:53:48.205Z,60.73
2022-12-25T19:56:16.466Z,60.75
2022-12-25T19:58:44.930Z,60.70
2022-12-25T20:01:17.035Z,60.79
2022-12-25T20:03:46.368Z,60.85
2022-12-25T20:06:20.050Z,60.73
2022-12-25T20:08:49.772Z,60.75
2022-12-25T20:11:17.997Z,60.54
2022-12-25T20:13:46.386Z,60.63
2022-12-25T20:16:14.349Z,60.75
2022-12-25T20:18:42.523Z,60.96
2022-12-25T20:21:16.538Z,61.11
2022-12-25T20:23:45.826Z,61.13
2022-12-25T20:26:15.309Z,61.18
2022-12-25T20:28:43.707Z,61.20
2022-12-25T20:31:17.072Z,61.25
2022-12-25T20:33:45.853Z,61.16
2022-12-25T20:36:14.210Z,61.16
2022-12-25T20:38:42.516Z,61.22
2022-12-25T20:41:29.989Z,61.00
2022-12-25T20:43:58.445Z,61.17
2022-12-25T20:46:26.610Z,61.22
2022-12-25T20:48:54.719Z,61.48
2022-12-25T20:51:25.687Z,61.49
2022-12-25T20:53:55.292Z,61.57
2022-12-25T20:56:26.313Z,61.59
2022-12-25T20:58:59.831Z,61.39
2022-12-25T21:01:28.751Z,61.52
2022-12-25T21:03:57.027Z,61.35
2022-12-25T21:06:25.277Z,61.58
2022-12-25T21:08:53.111Z,61.51
2022-12-25T21:11:22.045Z,61.41
2022-12-25T21:13:50.127Z,61.48
2022-12-25T21:16:21.682Z,61.43
2022-12-25T21:18:50.385Z,61.43
2022-12-25T21:21:19.342Z,61.58
2022-12-25T21:23:47.611Z,61.80
2022-12-25T21:26:22.845Z,62.20
2022-12-25T21:28:54.413Z,62.47
2022-12-25T21:31:22.906Z,62.60
2022-12-25T21:33:54.630Z,62.53
2022-12-25T21:36:27.393Z,62.47
2022-12-25T21:39:02.441Z,62.58
2022-12-25T21:41:32.241Z,62.37
2022-12-25T21:44:00.766Z,62.26
2022-12-25T21:46:29.208Z,62.19
2022-12-25T21:48:57.442Z,62.09
2022-12-25T21:51:48.643Z,62.20
2022-12-25T21:54:18.458Z,62.28
2022-12-25T21:56:47.323Z,62.55
2022-12-25T21:59:20.113Z,62.66
2022-12-25T22:01:50.141Z,62.89
2022-12-25T22:04:20.454Z,62.73
2022-12-25T22:07:07.443Z,62.84
2022-12-25T22:09:35.315Z,62.83
2022-12-25T22:12:22.315Z,62.72
2022-12-25T22:14:54.269Z,62.51
2022-12-25T22:17:47.073Z,62.32
2022-12-25T22:20:24.196Z,62.06
2022-12-25T22:22:52.693Z,61.94
2022-12-25T22:25:20.683Z,61.96
2022-12-25T22:27:48.844Z,62.04
2022-12-25T22:30:19.769Z,62.14
2022-12-25T22:32:48.767Z,62.15
2022-12-25T22:35:17.538Z,62.13
2022-12-25T22:37:45.597Z,62.07
2022-12-25T22:40:14.634Z,62.16
2022-12-25T22:42:42.625Z,62.07
2022-12-25T22:45:12.199Z,62.05
2022-12-25T22:47:40.467Z,62.14
2022-12-25T22:50:09.193Z,62.16
2022-12-25T22:52:37.323Z,62.21
2022-12-25T22:55:07.686Z,62.09
2022-12-25T22:57:35.990Z,61.92
2022-12-25T23:00:06.082Z,62.01
2022-12-25T23:02:35.405Z,61.88
2022-12-25T23:05:04.126Z,61.87
2022-12-25T23:07:32.069Z,61.84
2022-12-25T23:09:59.908Z,61.75
2022-12-25T23:12:46.431Z,61.72
2022-12-25T23:15:14.460Z,61.79
2022-12-25T23:18:00.661Z,61.79
2022-12-25T23:20:47.275Z,61.85
2022-12-25T23:23:35.439Z,61.83
2022-12-25T23:26:09.973Z,61.60
2022-12-25T23:29:00.684Z,61.55
2022-12-25T23:31:35.994Z,61.70
2022-12-25T23:34:05.378Z,61.86
2022-12-25T23:36:34.127Z,62.06
2022-12-25T23:39:08.956Z,62.22
2022-12-25T23:41:39.701Z,62.33
2022-12-25T23:44:08.244Z,62.34
2022-12-25T23:46:37.337Z,62.34
2022-12-25T23:49:06.315Z,62.41
2022-12-25T23:51:39.528Z,62.54
2022-12-25T23:54:08.395Z,62.55
2022-12-25T23:56:37.113Z,62.61
2022-12-25T23:59:05.997Z,62.60
